sensor_id;sensor_type;location;lat;lon;timestamp;P1;durP1;ratioP1;P2;durP2;ratioP2
53644;SDS011;39547;45.554;12.068;2022-09-12T00:01:27;14.07;;;6.50;;
53644;SDS011;39547;45.554;12.068;2022-09-12T00:07:29;14.07;;;6.95;;
53644;SDS011;39547;45.554;12.068;2022-09-12T00:13:32;16.08;;;7.80;;
53644;SDS011;39547;45.554;12.068;2022-09-12T00:19:34;16.58;;;7.32;;
53644;SDS011;39547;45.554;12.068;2022-09-12T00:25:40;14.23;;;7.22;;
53644;SDS011;39547;45.554;12.068;2022-09-12T00:31:45;14.68;;;7.75;;
53644;SDS011;39547;45.554;12.068;2022-09-12T00:37:48;14.82;;;8.10;;
53644;SDS011;39547;45.554;12.068;2022-09-12T00:43:57;16.50;;;8.55;;
53644;SDS011;39547;45.554;12.068;2022-09-12T00:50:21;16.38;;;8.00;;
53644;SDS011;39547;45.554;12.068;2022-09-12T00:56:23;13.88;;;6.68;;
53644;SDS011;39547;45.554;12.068;2022-09-12T01:02:26;14.65;;;6.72;;
53644;SDS011;39547;45.554;12.068;2022-09-12T01:08:28;13.63;;;7.00;;
53644;SDS011;39547;45.554;12.068;2022-09-12T01:14:30;13.15;;;6.35;;
53644;SDS011;39547;45.554;12.068;2022-09-12T01:46:51;11.88;;;4.55;;
53644;SDS011;39547;45.554;12.068;2022-09-12T02:11:40;10.98;;;3.90;;
53644;SDS011;39547;45.554;12.068;2022-09-12T02:17:44;10.98;;;3.63;;
53644;SDS011;39547;45.554;12.068;2022-09-12T02:23:52;11.35;;;3.78;;
53644;SDS011;39547;45.554;12.068;2022-09-12T02:29:56;11.75;;;3.50;;
53644;SDS011;39547;45.554;12.068;2022-09-12T02:36:09;11.40;;;3.45;;
53644;SDS011;39547;45.554;12.068;2022-09-12T02:42:15;9.88;;;3.30;;
53644;SDS011;39547;45.554;12.068;2022-09-12T02:48:21;11.52;;;3.20;;
53644;SDS011;39547;45.554;12.068;2022-09-12T02:54:26;10.90;;;3.38;;
53644;SDS011;39547;45.554;12.068;2022-09-12T03:00:29;10.68;;;3.38;;
53644;SDS011;39547;45.554;12.068;2022-09-12T03:06:41;11.60;;;3.30;;
53644;SDS011;39547;45.554;12.068;2022-09-12T03:25:20;10.60;;;3.13;;
53644;SDS011;39547;45.554;12.068;2022-09-12T03:31:27;9.90;;;2.90;;
53644;SDS011;39547;45.554;12.068;2022-09-12T03:37:29;10.95;;;3.35;;
53644;SDS011;39547;45.554;12.068;2022-09-12T03:43:30;10.15;;;3.10;;
53644;SDS011;39547;45.554;12.068;2022-09-12T03:49:32;11.55;;;2.90;;
53644;SDS011;39547;45.554;12.068;2022-09-12T03:55:33;10.50;;;3.20;;
53644;SDS011;39547;45.554;12.068;2022-09-12T04:01:35;10.20;;;3.03;;
53644;SDS011;39547;45.554;12.068;2022-09-12T04:07:38;10.00;;;3.05;;
53644;SDS011;39547;45.554;12.068;2022-09-12T04:13:40;9.93;;;3.10;;
53644;SDS011;39547;45.554;12.068;2022-09-12T04:19:43;10.57;;;3.37;;
53644;SDS011;39547;45.554;12.068;2022-09-12T04:25:51;10.52;;;3.30;;
53644;SDS011;39547;45.554;12.068;2022-09-12T04:31:57;10.82;;;3.38;;
53644;SDS011;39547;45.554;12.068;2022-09-12T04:37:58;11.90;;;3.60;;
53644;SDS011;39547;45.554;12.068;2022-09-12T04:44:01;10.40;;;3.38;;
53644;SDS011;39547;45.554;12.068;2022-09-12T04:50:05;10.35;;;3.40;;
53644;SDS011;39547;45.554;12.068;2022-09-12T04:56:08;10.75;;;3.67;;
53644;SDS011;39547;45.554;12.068;2022-09-12T05:02:10;11.47;;;3.60;;
53644;SDS011;39547;45.554;12.068;2022-09-12T05:08:12;13.48;;;4.05;;
53644;SDS011;39547;45.554;12.068;2022-09-12T05:14:13;11.20;;;4.03;;
53644;SDS011;39547;45.554;12.068;2022-09-12T05:20:15;11.73;;;4.22;;
53644;SDS011;39547;45.554;12.068;2022-09-12T05:26:17;12.25;;;4.15;;
53644;SDS011;39547;45.554;12.068;2022-09-12T05:32:20;12.32;;;4.50;;
53644;SDS011;39547;45.554;12.068;2022-09-12T05:38:22;13.55;;;4.70;;
53644;SDS011;39547;45.554;12.068;2022-09-12T05:44:28;12.18;;;4.65;;
53644;SDS011;39547;45.554;12.068;2022-09-12T05:50:30;12.02;;;4.85;;
53644;SDS011;39547;45.554;12.068;2022-09-12T05:56:33;13.07;;;5.05;;
53644;SDS011;39547;45.554;12.068;2022-09-12T06:02:38;12.25;;;4.57;;
53644;SDS011;39547;45.554;12.068;2022-09-12T06:08:41;11.98;;;4.53;;
53644;SDS011;39547;45.554;12.068;2022-09-12T06:14:43;12.75;;;4.97;;
53644;SDS011;39547;45.554;12.068;2022-09-12T06:20:45;11.70;;;4.47;;
53644;SDS011;39547;45.554;12.068;2022-09-12T06:26:47;12.25;;;4.65;;
53644;SDS011;39547;45.554;12.068;2022-09-12T06:32:49;12.50;;;4.53;;
53644;SDS011;39547;45.554;12.068;2022-09-12T06:38:58;11.63;;;4.40;;
53644;SDS011;39547;45.554;12.068;2022-09-12T06:45:07;12.60;;;4.35;;
53644;SDS011;39547;45.554;12.068;2022-09-12T06:51:10;13.02;;;3.90;;
53644;SDS011;39547;45.554;12.068;2022-09-12T06:57:13;11.63;;;3.90;;
53644;SDS011;39547;45.554;12.068;2022-09-12T07:03:15;11.95;;;4.00;;
53644;SDS011;39547;45.554;12.068;2022-09-12T07:09:16;10.50;;;3.60;;
53644;SDS011;39547;45.554;12.068;2022-09-12T07:15:17;11.30;;;3.25;;
53644;SDS011;39547;45.554;12.068;2022-09-12T07:21:19;10.45;;;3.00;;
53644;SDS011;39547;45.554;12.068;2022-09-12T07:27:21;9.70;;;2.75;;
53644;SDS011;39547;45.554;12.068;2022-09-12T07:33:23;8.75;;;2.60;;
53644;SDS011;39547;45.554;12.068;2022-09-12T07:39:27;9.88;;;2.63;;
53644;SDS011;39547;45.554;12.068;2022-09-12T07:45:29;9.13;;;2.60;;
53644;SDS011;39547;45.554;12.068;2022-09-12T07:51:30;9.07;;;2.50;;
53644;SDS011;39547;45.554;12.068;2022-09-12T07:57:32;7.85;;;2.40;;
53644;SDS011;39547;45.554;12.068;2022-09-12T08:03:34;10.75;;;2.50;;
53644;SDS011;39547;45.554;12.068;2022-09-12T08:09:36;8.82;;;2.40;;
53644;SDS011;39547;45.554;12.068;2022-09-12T08:15:37;8.45;;;2.40;;
53644;SDS011;39547;45.554;12.068;2022-09-12T08:21:39;8.48;;;2.28;;
53644;SDS011;39547;45.554;12.068;2022-09-12T08:27:40;8.90;;;2.22;;
53644;SDS011;39547;45.554;12.068;2022-09-12T08:33:43;8.40;;;2.40;;
53644;SDS011;39547;45.554;12.068;2022-09-12T08:39:44;6.88;;;2.20;;
53644;SDS011;39547;45.554;12.068;2022-09-12T08:45:50;8.35;;;2.28;;
53644;SDS011;39547;45.554;12.068;2022-09-12T08:52:04;7.68;;;2.20;;
53644;SDS011;39547;45.554;12.068;2022-09-12T08:58:29;8.50;;;2.30;;
53644;SDS011;39547;45.554;12.068;2022-09-12T09:17:57;7.93;;;2.30;;
53644;SDS011;39547;45.554;12.068;2022-09-12T09:24:04;8.57;;;2.30;;
53644;SDS011;39547;45.554;12.068;2022-09-12T09:30:14;6.18;;;2.20;;
53644;SDS011;39547;45.554;12.068;2022-09-12T09:49:00;8.40;;;2.25;;
53644;SDS011;39547;45.554;12.068;2022-09-12T09:55:09;7.50;;;2.22;;
53644;SDS011;39547;45.554;12.068;2022-09-12T10:01:21;8.00;;;2.30;;
53644;SDS011;39547;45.554;12.068;2022-09-12T10:07:24;9.90;;;2.60;;
53644;SDS011;39547;45.554;12.068;2022-09-12T10:13:29;8.55;;;2.47;;
53644;SDS011;39547;45.554;12.068;2022-09-12T10:19:47;9.25;;;2.47;;
53644;SDS011;39547;45.554;12.068;2022-09-12T10:25:53;8.32;;;2.40;;
53644;SDS011;39547;45.554;12.068;2022-09-12T10:32:02;7.93;;;2.28;;
53644;SDS011;39547;45.554;12.068;2022-09-12T10:38:26;9.10;;;2.35;;
53644;SDS011;39547;45.554;12.068;2022-09-12T10:44:32;7.95;;;2.25;;
53644;SDS011;39547;45.554;12.068;2022-09-12T10:50:35;7.50;;;2.20;;
53644;SDS011;39547;45.554;12.068;2022-09-12T11:09:15;11.35;;;2.40;;
53644;SDS011;39547;45.554;12.068;2022-09-12T11:21:45;6.65;;;2.30;;
53644;SDS011;39547;45.554;12.068;2022-09-12T11:28:15;6.60;;;2.20;;
53644;SDS011;39547;45.554;12.068;2022-09-12T11:34:25;7.13;;;2.20;;
53644;SDS011;39547;45.554;12.068;2022-09-12T11:40:47;8.77;;;2.40;;
53644;SDS011;39547;45.554;12.068;2022-09-12T11:46:50;6.65;;;2.15;;
53644;SDS011;39547;45.554;12.068;2022-09-12T11:52:52;6.85;;;2.15;;
53644;SDS011;39547;45.554;12.068;2022-09-12T11:59:04;8.52;;;2.33;;
53644;SDS011;39547;45.554;12.068;2022-09-12T12:11:46;9.10;;;2.40;;
53644;SDS011;39547;45.554;12.068;2022-09-12T12:17:59;7.72;;;2.40;;
53644;SDS011;39547;45.554;12.068;2022-09-12T12:24:27;6.22;;;2.30;;
53644;SDS011;39547;45.554;12.068;2022-09-12T12:36:31;9.30;;;2.60;;
53644;SDS011;39547;45.554;12.068;2022-09-12T12:48:47;9.07;;;2.70;;
53644;SDS011;39547;45.554;12.068;2022-09-12T12:55:13;7.82;;;2.60;;
53644;SDS011;39547;45.554;12.068;2022-09-12T13:01:18;8.95;;;2.80;;
53644;SDS011;39547;45.554;12.068;2022-09-12T13:07:32;8.57;;;2.72;;
53644;SDS011;39547;45.554;12.068;2022-09-12T13:13:45;8.43;;;2.70;;
53644;SDS011;39547;45.554;12.068;2022-09-12T13:26:20;8.95;;;2.80;;
53644;SDS011;39547;45.554;12.068;2022-09-12T13:32:25;8.40;;;2.90;;
53644;SDS011;39547;45.554;12.068;2022-09-12T13:44:51;8.73;;;2.80;;
53644;SDS011;39547;45.554;12.068;2022-09-12T13:50:59;8.55;;;2.80;;
53644;SDS011;39547;45.554;12.068;2022-09-12T13:57:02;8.52;;;2.70;;
53644;SDS011;39547;45.554;12.068;2022-09-12T14:03:24;10.55;;;2.83;;
53644;SDS011;39547;45.554;12.068;2022-09-12T14:09:59;9.32;;;2.70;;
53644;SDS011;39547;45.554;12.068;2022-09-12T14:16:01;10.10;;;2.90;;
53644;SDS011;39547;45.554;12.068;2022-09-12T14:22:02;8.50;;;2.50;;
53644;SDS011;39547;45.554;12.068;2022-09-12T14:28:04;9.90;;;2.60;;
53644;SDS011;39547;45.554;12.068;2022-09-12T14:34:11;8.00;;;2.50;;
53644;SDS011;39547;45.554;12.068;2022-09-12T14:40:19;8.13;;;2.50;;
53644;SDS011;39547;45.554;12.068;2022-09-12T14:46:23;7.60;;;2.40;;
53644;SDS011;39547;45.554;12.068;2022-09-12T14:52:37;8.57;;;2.50;;
53644;SDS011;39547;45.554;12.068;2022-09-12T14:58:40;8.23;;;2.40;;
53644;SDS011;39547;45.554;12.068;2022-09-12T15:04:43;8.57;;;2.30;;
53644;SDS011;39547;45.554;12.068;2022-09-12T15:11:05;11.25;;;2.38;;
53644;SDS011;39547;45.554;12.068;2022-09-12T15:17:07;8.38;;;2.20;;
53644;SDS011;39547;45.554;12.068;2022-09-12T15:23:16;8.35;;;2.40;;
53644;SDS011;39547;45.554;12.068;2022-09-12T15:29:28;8.77;;;2.35;;
53644;SDS011;39547;45.554;12.068;2022-09-12T15:35:29;9.52;;;2.30;;
53644;SDS011;39547;45.554;12.068;2022-09-12T15:47:38;5.82;;;2.00;;
53644;SDS011;39547;45.554;12.068;2022-09-12T15:53:39;6.43;;;2.05;;
53644;SDS011;39547;45.554;12.068;2022-09-12T15:59:41;5.18;;;1.90;;
53644;SDS011;39547;45.554;12.068;2022-09-12T16:05:42;7.95;;;1.90;;
53644;SDS011;39547;45.554;12.068;2022-09-12T16:11:44;8.20;;;2.10;;
53644;SDS011;39547;45.554;12.068;2022-09-12T16:17:46;6.82;;;2.10;;
53644;SDS011;39547;45.554;12.068;2022-09-12T16:23:49;7.35;;;1.90;;
53644;SDS011;39547;45.554;12.068;2022-09-12T16:29:51;6.50;;;1.90;;
53644;SDS011;39547;45.554;12.068;2022-09-12T16:35:52;7.65;;;2.10;;
53644;SDS011;39547;45.554;12.068;2022-09-12T16:42:00;8.20;;;2.00;;
53644;SDS011;39547;45.554;12.068;2022-09-12T16:48:02;6.60;;;1.92;;
53644;SDS011;39547;45.554;12.068;2022-09-12T16:54:04;7.38;;;2.08;;
53644;SDS011;39547;45.554;12.068;2022-09-12T17:00:05;6.18;;;2.00;;
53644;SDS011;39547;45.554;12.068;2022-09-12T17:06:11;7.80;;;2.20;;
53644;SDS011;39547;45.554;12.068;2022-09-12T17:12:16;6.70;;;2.05;;
53644;SDS011;39547;45.554;12.068;2022-09-12T17:18:17;7.70;;;2.10;;
53644;SDS011;39547;45.554;12.068;2022-09-12T17:24:19;8.80;;;2.28;;
53644;SDS011;39547;45.554;12.068;2022-09-12T17:30:21;7.13;;;2.20;;
53644;SDS011;39547;45.554;12.068;2022-09-12T17:36:23;8.48;;;2.35;;
53644;SDS011;39547;45.554;12.068;2022-09-12T17:42:25;8.43;;;2.40;;
53644;SDS011;39547;45.554;12.068;2022-09-12T17:48:26;9.10;;;2.50;;
53644;SDS011;39547;45.554;12.068;2022-09-12T17:54:27;8.90;;;2.40;;
53644;SDS011;39547;45.554;12.068;2022-09-12T18:00:29;9.60;;;2.60;;
53644;SDS011;39547;45.554;12.068;2022-09-12T18:07:07;9.90;;;2.67;;
53644;SDS011;39547;45.554;12.068;2022-09-12T18:13:08;8.02;;;2.60;;
53644;SDS011;39547;45.554;12.068;2022-09-12T18:19:10;10.02;;;2.60;;
53644;SDS011;39547;45.554;12.068;2022-09-12T18:25:12;10.07;;;2.75;;
53644;SDS011;39547;45.554;12.068;2022-09-12T18:31:14;10.93;;;2.90;;
53644;SDS011;39547;45.554;12.068;2022-09-12T18:37:17;9.25;;;2.90;;
53644;SDS011;39547;45.554;12.068;2022-09-12T18:43:18;10.18;;;3.08;;
53644;SDS011;39547;45.554;12.068;2022-09-12T18:49:20;9.85;;;2.92;;
53644;SDS011;39547;45.554;12.068;2022-09-12T18:55:22;9.90;;;2.80;;
53644;SDS011;39547;45.554;12.068;2022-09-12T19:01:28;9.23;;;2.80;;
53644;SDS011;39547;45.554;12.068;2022-09-12T19:07:31;9.98;;;2.83;;
53644;SDS011;39547;45.554;12.068;2022-09-12T19:13:36;9.45;;;2.80;;
53644;SDS011;39547;45.554;12.068;2022-09-12T19:19:39;9.38;;;2.80;;
53644;SDS011;39547;45.554;12.068;2022-09-12T19:25:41;10.10;;;2.95;;
53644;SDS011;39547;45.554;12.068;2022-09-12T19:31:42;10.38;;;3.20;;
53644;SDS011;39547;45.554;12.068;2022-09-12T19:37:44;9.70;;;3.10;;
53644;SDS011;39547;45.554;12.068;2022-09-12T19:43:45;10.55;;;3.20;;
53644;SDS011;39547;45.554;12.068;2022-09-12T19:49:47;10.15;;;3.00;;
53644;SDS011;39547;45.554;12.068;2022-09-12T19:55:48;10.27;;;3.10;;
53644;SDS011;39547;45.554;12.068;2022-09-12T20:01:50;13.75;;;3.40;;
53644;SDS011;39547;45.554;12.068;2022-09-12T20:07:51;9.95;;;3.28;;
53644;SDS011;39547;45.554;12.068;2022-09-12T20:13:53;10.30;;;3.40;;
53644;SDS011;39547;45.554;12.068;2022-09-12T20:19:55;10.63;;;3.30;;
53644;SDS011;39547;45.554;12.068;2022-09-12T20:25:59;11.73;;;3.60;;
53644;SDS011;39547;45.554;12.068;2022-09-12T20:32:01;10.90;;;3.33;;
53644;SDS011;39547;45.554;12.068;2022-09-12T20:38:03;11.18;;;3.63;;
53644;SDS011;39547;45.554;12.068;2022-09-12T20:44:05;11.05;;;3.50;;
53644;SDS011;39547;45.554;12.068;2022-09-12T20:50:07;12.57;;;3.78;;
53644;SDS011;39547;45.554;12.068;2022-09-12T20:56:09;11.60;;;3.47;;
53644;SDS011;39547;45.554;12.068;2022-09-12T21:02:14;10.85;;;3.38;;
53644;SDS011;39547;45.554;12.068;2022-09-12T21:08:16;11.27;;;3.75;;
53644;SDS011;39547;45.554;12.068;2022-09-12T21:14:17;11.07;;;4.20;;
53644;SDS011;39547;45.554;12.068;2022-09-12T21:20:19;12.35;;;4.38;;
53644;SDS011;39547;45.554;12.068;2022-09-12T21:26:21;13.27;;;4.20;;
53644;SDS011;39547;45.554;12.068;2022-09-12T21:32:22;11.07;;;4.43;;
53644;SDS011;39547;45.554;12.068;2022-09-12T21:38:23;11.25;;;4.38;;
53644;SDS011;39547;45.554;12.068;2022-09-12T21:44:25;11.35;;;4.13;;
53644;SDS011;39547;45.554;12.068;2022-09-12T21:50:27;11.32;;;4.05;;
53644;SDS011;39547;45.554;12.068;2022-09-12T21:56:28;11.38;;;4.22;;
53644;SDS011;39547;45.554;12.068;2022-09-12T22:02:30;11.00;;;4.78;;
53644;SDS011;39547;45.554;12.068;2022-09-12T22:08:32;12.43;;;4.97;;
53644;SDS011;39547;45.554;12.068;2022-09-12T22:14:34;11.87;;;5.40;;
53644;SDS011;39547;45.554;12.068;2022-09-12T22:20:36;13.80;;;5.68;;
53644;SDS011;39547;45.554;12.068;2022-09-12T22:26:38;13.68;;;6.05;;
53644;SDS011;39547;45.554;12.068;2022-09-12T22:32:44;13.57;;;6.13;;
53644;SDS011;39547;45.554;12.068;2022-09-12T22:38:47;13.77;;;6.30;;
53644;SDS011;39547;45.554;12.068;2022-09-12T22:44:49;13.48;;;6.28;;
53644;SDS011;39547;45.554;12.068;2022-09-12T22:50:51;13.27;;;5.88;;
53644;SDS011;39547;45.554;12.068;2022-09-12T22:56:53;13.57;;;7.45;;
53644;SDS011;39547;45.554;12.068;2022-09-12T23:02:54;13.70;;;7.15;;
53644;SDS011;39547;45.554;12.068;2022-09-12T23:08:56;12.50;;;6.30;;
53644;SDS011;39547;45.554;12.068;2022-09-12T23:14:57;14.13;;;7.10;;
53644;SDS011;39547;45.554;12.068;2022-09-12T23:21:03;14.02;;;6.50;;
53644;SDS011;39547;45.554;12.068;2022-09-12T23:27:09;13.10;;;6.18;;
53644;SDS011;39547;45.554;12.068;2022-09-12T23:33:10;12.88;;;6.45;;
53644;SDS011;39547;45.554;12.068;2022-09-12T23:39:11;12.95;;;6.72;;
53644;SDS011;39547;45.554;12.068;2022-09-12T23:45:13;13.75;;;7.32;;
53644;SDS011;39547;45.554;12.068;2022-09-12T23:51:14;13.70;;;6.85;;
53644;SDS011;39547;45.554;12.068;2022-09-12T23:57:16;16.33;;;8.07;;
